createdAt,value
2023-05-19T04:31:34.547Z,11.67
2023-05-19T04:34:40.971Z,11.45
2023-05-19T04:37:48.566Z,11.49
2023-05-19T04:40:52.584Z,11.54
2023-05-19T04:43:57.615Z,11.83
2023-05-19T04:47:03.789Z,11.67
2023-05-19T04:50:12.937Z,11.78
2023-05-19T04:53:37.051Z,11.82
2023-05-19T04:56:44.275Z,12.27
2023-05-19T04:59:49.552Z,12.57
2023-05-19T05:02:57.553Z,12.66
2023-05-19T05:06:08.932Z,12.88
2023-05-19T05:09:18.262Z,13.26
2023-05-19T05:12:43.578Z,13.27
2023-05-19T05:15:46.936Z,13.19
2023-05-19T05:18:51.246Z,13.40
2023-05-19T05:21:55.228Z,13.30
2023-05-19T05:25:02.053Z,13.19
2023-05-19T05:28:07.754Z,13.05
2023-05-19T05:31:14.421Z,13.65
2023-05-19T05:34:17.919Z,12.81
2023-05-19T05:37:41.865Z,13.46
2023-05-19T05:40:49.106Z,13.41
2023-05-19T05:43:55.661Z,12.48
2023-05-19T05:47:01.509Z,13.48
2023-05-19T05:50:25.258Z,13.76
2023-05-19T05:53:55.044Z,15.30
2023-05-19T05:57:36.645Z,14.79
2023-05-19T06:01:20.997Z,15.94
2023-05-19T06:05:05.830Z,15.37
2023-05-19T06:08:33.696Z,14.71
2023-05-19T06:12:00.398Z,16.71
2023-05-19T06:15:14.918Z,17.77
2023-05-19T06:18:41.389Z,17.38
2023-05-19T06:21:47.061Z,15.68
2023-05-19T06:25:10.839Z,14.88
2023-05-19T06:28:34.489Z,14.62
2023-05-19T10:28:41.189Z,20.14
2023-05-19T10:31:50.729Z,20.85
2023-05-19T10:35:18.925Z,20.86
2023-05-19T10:38:53.348Z,20.97
2023-05-19T10:42:11.103Z,20.74
2023-05-19T10:45:21.024Z,20.78
2023-05-19T10:48:23.845Z,21.74
2023-05-19T10:51:33.982Z,21.32
2023-05-19T10:54:41.517Z,22.07
2023-05-19T10:57:57.136Z,20.85
2023-05-19T11:01:03.032Z,20.41
2023-05-19T11:04:12.385Z,21.10
2023-05-19T11:07:20.160Z,21.27
2023-05-19T11:10:24.106Z,21.40
2023-05-19T11:16:34.665Z,21.48
2023-05-19T11:19:38.010Z,21.27
2023-05-19T11:22:42.275Z,20.25
2023-05-19T11:25:48.903Z,20.76
2023-05-19T11:28:54.536Z,21.14
2023-05-19T11:31:57.528Z,20.48
2023-05-19T11:35:02.950Z,19.86
2023-05-19T11:38:07.296Z,19.74
2023-05-19T11:41:10.431Z,20.32
2023-05-19T11:44:13.202Z,20.70
2023-05-19T11:47:17.302Z,19.96
2023-05-19T11:50:23.044Z,20.26
2023-05-19T11:53:33.301Z,20.24
2023-05-19T11:56:41.717Z,21.11
2023-05-19T11:59:48.036Z,21.27
2023-05-19T12:02:51.058Z,21.05
2023-05-19T12:05:54.597Z,21.40
2023-05-19T12:08:59.287Z,21.28
2023-05-19T12:12:03.108Z,20.34
2023-05-19T12:15:06.668Z,20.74
2023-05-19T12:18:09.798Z,21.22
2023-05-19T12:21:12.854Z,21.20
2023-05-19T12:24:16.148Z,21.19
2023-05-19T12:27:21.137Z,21.34
2023-05-19T12:30:29.398Z,20.72
2023-05-19T12:33:35.742Z,20.83
2023-05-19T12:36:41.474Z,21.00
2023-05-19T12:39:44.767Z,20.93
2023-05-19T12:42:52.153Z,21.27
2023-05-19T12:45:55.404Z,21.39
2023-05-19T12:49:01.024Z,21.53
2023-05-19T12:52:10.509Z,21.49
2023-05-19T12:55:20.917Z,21.87
2023-05-19T12:58:26.651Z,21.45
2023-05-19T13:01:31.445Z,21.48
2023-05-19T13:04:34.240Z,21.45
2023-05-19T13:07:37.444Z,21.31
2023-05-19T13:10:43.091Z,20.42
2023-05-19T13:13:47.301Z,21.21
2023-05-19T13:16:51.134Z,21.04
2023-05-19T13:19:54.302Z,21.87
2023-05-19T13:22:58.528Z,22.43
2023-05-19T13:26:05.186Z,21.50
2023-05-19T13:29:09.036Z,22.19
2023-05-19T13:32:12.089Z,21.93
2023-05-19T13:35:15.979Z,21.72
2023-05-19T13:38:41.909Z,21.37
2023-05-19T13:41:45.169Z,21.68
2023-05-19T13:44:55.369Z,21.99
2023-05-19T13:47:58.480Z,21.95
2023-05-19T13:51:02.393Z,21.67
2023-05-19T13:54:05.175Z,21.28
2023-05-19T13:57:11.901Z,21.26
2023-05-19T14:00:19.066Z,21.17
2023-05-19T14:03:22.196Z,21.64
2023-05-19T14:06:25.054Z,21.18
2023-05-19T14:09:29.275Z,21.64
2023-05-19T14:12:47.822Z,21.70
2023-05-19T14:15:55.735Z,22.14
2023-05-19T14:18:58.622Z,22.51
2023-05-19T14:22:05.619Z,21.97
2023-05-19T14:25:08.925Z,21.95
2023-05-19T14:28:14.859Z,21.46
2023-05-19T14:31:21.297Z,21.35
2023-05-19T14:37:28.970Z,21.50
2023-05-19T14:40:32.456Z,21.58
2023-05-19T14:43:36.732Z,21.45
2023-05-19T14:46:40.055Z,21.51
2023-05-19T14:49:42.771Z,21.94
2023-05-19T14:52:45.887Z,21.41
2023-05-19T14:55:51.586Z,21.38
2023-05-19T14:59:14.574Z,21.59
2023-05-19T15:02:17.299Z,21.83
2023-05-19T15:06:00.367Z,21.33
2023-05-19T15:09:23.015Z,21.59
2023-05-19T15:13:02.568Z,21.80
2023-05-19T15:16:17.057Z,21.55
2023-05-19T15:19:21.440Z,21.52
2023-05-19T15:22:24.474Z,21.57
2023-05-19T15:25:36.103Z,21.06
2023-05-19T15:28:38.978Z,21.19
2023-05-19T15:31:46.881Z,22.10
2023-05-19T15:35:14.038Z,21.90
2023-05-19T15:38:19.584Z,21.68
2023-05-19T15:41:22.640Z,21.81
2023-05-19T15:44:28.814Z,22.26
2023-05-19T15:47:32.256Z,22.27
2023-05-19T15:50:37.505Z,21.86
2023-05-19T15:53:40.761Z,21.89
2023-05-19T15:56:43.795Z,21.69
2023-05-19T15:59:46.574Z,22.05
2023-05-19T16:02:49.827Z,21.82
2023-05-19T16:05:54.044Z,21.55
2023-05-19T16:08:57.006Z,21.66
2023-05-19T16:12:01.104Z,21.54
2023-05-19T16:15:04.094Z,21.69
2023-05-19T16:18:10.606Z,21.29
2023-05-19T16:21:13.321Z,21.06
2023-05-19T16:24:16.285Z,21.09
2023-05-19T16:27:19.225Z,21.33
2023-05-19T16:30:23.228Z,21.14
2023-05-19T16:33:27.295Z,21.11
2023-05-19T16:36:34.476Z,20.89
2023-05-19T16:39:37.480Z,20.78
2023-05-19T16:42:41.168Z,20.62
2023-05-19T16:45:44.006Z,20.56
2023-05-19T16:48:47.755Z,20.74
2023-05-19T16:51:55.260Z,20.44
2023-05-19T16:55:11.129Z,20.38
2023-05-19T16:58:14.648Z,20.50
2023-05-19T17:01:17.772Z,20.36
2023-05-19T17:04:21.248Z,20.35
2023-05-19T17:07:27.944Z,20.25
2023-05-19T17:10:31.073Z,20.44
2023-05-19T17:13:36.356Z,20.39
2023-05-19T17:16:39.159Z,20.29
2023-05-19T17:19:42.806Z,20.14
2023-05-19T17:22:52.812Z,20.10
2023-05-19T17:25:56.755Z,20.07
2023-05-19T17:29:06.055Z,19.93
2023-05-19T17:32:12.861Z,20.08
2023-05-19T17:35:16.822Z,19.71
2023-05-19T17:38:40.266Z,19.53
2023-05-19T17:41:44.035Z,19.35
2023-05-19T17:44:51.707Z,19.19
2023-05-19T17:47:54.523Z,19.04
2023-05-19T17:50:58.193Z,18.92
2023-05-19T17:54:05.499Z,18.84
2023-05-19T17:57:14.979Z,18.69
2023-05-19T18:00:19.100Z,18.67
2023-05-19T18:03:23.359Z,18.60
2023-05-19T18:06:28.714Z,18.52
2023-05-19T18:09:36.532Z,18.33
2023-05-19T18:12:40.484Z,18.38
2023-05-19T18:15:44.094Z,18.03
2023-05-19T18:18:50.517Z,17.80
2023-05-19T18:21:54.042Z,17.74
2023-05-19T18:25:20.922Z,17.54
2023-05-19T18:28:24.482Z,17.43
2023-05-19T18:31:27.445Z,17.31
2023-05-19T18:34:30.628Z,17.13
2023-05-19T18:37:33.380Z,17.05
2023-05-19T18:40:36.476Z,16.99
2023-05-19T18:43:40.722Z,16.88
2023-05-19T18:46:45.099Z,16.78
2023-05-19T18:49:47.830Z,16.70
2023-05-19T18:52:50.870Z,16.60
2023-05-19T18:55:53.612Z,16.51
2023-05-19T18:58:57.751Z,16.47
2023-05-19T19:02:01.508Z,16.35
2023-05-19T19:05:09.520Z,16.29
2023-05-19T19:08:12.307Z,16.21
2023-05-19T19:11:17.471Z,16.09
2023-05-19T19:14:20.149Z,16.00
2023-05-19T19:17:23.370Z,15.88
2023-05-19T20:11:59.828Z,14.78
2023-05-19T20:15:02.946Z,14.81
2023-05-19T20:18:06.835Z,14.82
2023-05-19T20:21:10.324Z,14.90
2023-05-19T20:24:13.106Z,14.88
2023-05-19T20:27:16.402Z,14.91
2023-05-19T20:30:20.751Z,14.82
2023-05-19T20:33:23.914Z,14.75
2023-05-19T20:36:27.979Z,14.68
2023-05-19T20:39:31.489Z,14.64
2023-05-19T20:42:34.328Z,14.68
2023-05-19T20:45:37.805Z,14.68
2023-05-19T20:48:40.684Z,14.64
2023-05-19T20:51:43.705Z,14.58
2023-05-19T20:54:48.311Z,14.61
2023-05-19T20:57:52.176Z,14.62
2023-05-19T21:00:57.938Z,14.47
2023-05-19T21:04:07.764Z,14.46
2023-05-19T21:07:13.920Z,14.41
2023-05-19T21:10:17.998Z,14.37
2023-05-19T21:13:20.870Z,14.34
2023-05-19T21:16:24.003Z,14.33
2023-05-19T21:19:26.972Z,14.36
2023-05-19T21:22:31.635Z,14.39
2023-05-19T21:25:34.555Z,14.32
2023-05-19T21:28:37.925Z,14.33
2023-05-19T21:31:40.986Z,14.33
2023-05-19T21:34:45.200Z,14.32
2023-05-19T21:37:48.421Z,14.31
2023-05-19T21:40:52.668Z,14.27
2023-05-19T21:43:55.524Z,14.17
2023-05-19T21:46:59.047Z,14.24
2023-05-19T21:50:02.036Z,14.52
2023-05-19T21:53:05.709Z,14.77
2023-05-19T21:56:09.302Z,14.67
2023-05-19T21:59:12.539Z,14.80
2023-05-19T22:02:16.562Z,14.84
2023-05-19T22:05:20.414Z,14.69
2023-05-19T22:08:27.245Z,14.49
2023-05-19T22:11:30.790Z,14.41
2023-05-19T22:14:34.167Z,14.32
2023-05-19T22:17:40.548Z,14.18
2023-05-19T22:20:43.440Z,14.17
2023-05-19T22:23:46.917Z,14.17
2023-05-19T22:26:49.598Z,13.99
2023-05-19T22:29:52.779Z,13.99
2023-05-19T22:32:55.687Z,13.88
2023-05-19T22:35:59.389Z,13.68
2023-05-19T22:39:04.661Z,13.86
2023-05-19T22:42:08.065Z,13.77
2023-05-19T22:45:12.071Z,13.82
2023-05-19T22:48:15.083Z,13.76
2023-05-19T22:51:17.879Z,13.92
2023-05-19T22:54:21.680Z,14.06
2023-05-19T22:57:24.327Z,13.69
2023-05-19T23:00:27.325Z,13.63
2023-05-19T23:03:30.077Z,13.70
2023-05-19T23:06:41.278Z,13.72
2023-05-19T23:09:44.242Z,13.56
2023-05-19T23:12:48.847Z,13.62
2023-05-19T23:15:51.921Z,13.55
2023-05-19T23:18:55.793Z,13.47
2023-05-19T23:21:59.611Z,13.40
2023-05-19T23:25:07.642Z,13.36
2023-05-19T23:28:11.716Z,13.23
2023-05-19T23:31:17.869Z,13.15
2023-05-19T23:34:20.950Z,13.14
2023-05-19T23:37:57.968Z,13.07
2023-05-19T23:41:22.401Z,13.06
2023-05-19T23:44:27.375Z,13.01
2023-05-19T23:47:41.153Z,13.06
2023-05-19T23:50:45.444Z,12.95
2023-05-19T23:53:49.089Z,12.89
2023-05-19T23:56:53.129Z,12.79
2023-05-19T23:59:56.613Z,12.69
